Dewitt, Virginia
Current Conditions -  °F | °C
As of 9:15 AM on Thursday 18 Dec 2014 (Local Time) from KPTB Reporting Station
Clear Clear  
Wind Chill: 38°   Ceiling: Unl
Heat Index: 38°   Visibility: 10mi
Dew Point: 28°   Wind: 3mph
Humidity: 65%   Direction: 350°N
Pressure: 30.19"   Gusts: NA
Location:  37.04°N, 77.64°W
Report Text: KPTB 181415Z AUTO 35003KT 10SM CLR 04/M02 A3019 RMK AO2 T00351025
Loading
Personal Weather Stations






























Interactive Weather Map New forecast layout! Learn more

10-Day Weather Forecast

Advertisements
Track Severe Weather on mobile